createdAt,value
2019-04-29T00:04:05.952Z,10.27
2019-04-29T00:09:15.591Z,10.28
2019-04-29T00:14:21.330Z,10.31
2019-04-29T00:19:28.719Z,10.33
2019-04-29T00:24:35.647Z,10.21
2019-04-29T00:29:41.411Z,10.20
2019-04-29T00:34:47.452Z,10.27
2019-04-29T00:40:09.903Z,10.26
2019-04-29T00:45:18.478Z,10.21
2019-04-29T00:50:24.227Z,10.29
2019-04-29T00:55:31.663Z,10.28
2019-04-29T01:00:39.932Z,10.34
2019-04-29T01:05:45.762Z,10.30
2019-04-29T01:10:51.445Z,10.35
2019-04-29T01:15:57.040Z,10.24
2019-04-29T01:21:02.559Z,10.26
2019-04-29T01:26:12.652Z,10.31
2019-04-29T01:31:19.877Z,10.32
2019-04-29T01:36:27.246Z,10.18
2019-04-29T01:41:37.649Z,10.32
2019-04-29T01:46:43.380Z,10.32
2019-04-29T01:51:49.138Z,10.27
2019-04-29T01:56:54.737Z,10.30
2019-04-29T02:02:00.356Z,10.30
2019-04-29T02:07:06.024Z,10.24
2019-04-29T02:12:11.702Z,10.31
2019-04-29T02:17:17.524Z,10.30
2019-04-29T02:22:27.613Z,10.34
2019-04-29T02:27:33.243Z,10.40
2019-04-29T02:32:38.906Z,10.48
2019-04-29T02:37:45.342Z,10.37
2019-04-29T02:42:52.762Z,10.50
2019-04-29T02:47:58.281Z,10.56
2019-04-29T02:53:04.040Z,10.44
2019-04-29T02:58:23.510Z,10.37
2019-04-29T03:03:30.940Z,10.36
2019-04-29T03:08:36.501Z,10.45
2019-04-29T03:13:42.853Z,10.47
2019-04-29T03:18:50.706Z,10.45
2019-04-29T03:23:56.331Z,10.54
2019-04-29T03:29:01.912Z,10.48
2019-04-29T03:34:07.597Z,10.49
2019-04-29T03:39:13.252Z,10.55
2019-04-29T03:44:18.904Z,10.65
2019-04-29T03:49:24.536Z,10.84
2019-04-29T03:54:30.181Z,10.69
2019-04-29T03:59:35.735Z,10.74
2019-04-29T04:04:55.086Z,10.70
2019-04-29T04:10:00.718Z,10.60
2019-04-29T04:15:08.110Z,10.60
2019-04-29T04:20:14.638Z,10.55
2019-04-29T04:25:20.410Z,10.45
2019-04-29T04:30:26.282Z,10.68
2019-04-29T04:35:31.901Z,10.60
2019-04-29T04:40:42.092Z,10.43
2019-04-29T04:45:47.843Z,10.35
2019-04-29T04:50:53.636Z,10.23
2019-04-29T04:56:01.277Z,10.25
2019-04-29T05:01:07.025Z,10.18
2019-04-29T05:06:12.898Z,10.00
2019-04-29T05:11:18.832Z,9.91
2019-04-29T05:16:24.618Z,9.80
2019-04-29T05:21:30.333Z,9.91
2019-04-29T05:26:35.967Z,9.77
2019-04-29T05:31:41.852Z,9.70
2019-04-29T05:36:55.591Z,10.01
2019-04-29T05:42:01.777Z,9.97
2019-04-29T05:47:09.175Z,9.77
2019-04-29T05:52:19.443Z,10.04
2019-04-29T05:57:26.985Z,9.69
2019-04-29T06:02:35.112Z,9.64
2019-04-29T06:07:40.233Z,9.83
2019-04-29T06:12:46.138Z,9.94
2019-04-29T06:17:52.112Z,10.15
2019-04-29T06:22:57.882Z,9.85
2019-04-29T06:28:03.937Z,10.10
2019-04-29T06:33:10.647Z,10.43
2019-04-29T06:38:16.514Z,10.33
2019-04-29T06:43:24.692Z,10.57
2019-04-29T06:48:29.796Z,10.81
2019-04-29T06:53:35.654Z,11.10
2019-04-29T06:58:41.429Z,11.07
2019-04-29T07:03:47.291Z,11.12
2019-04-29T07:08:53.251Z,11.07
2019-04-29T07:13:59.368Z,10.89
2019-04-29T07:19:05.326Z,10.89
2019-04-29T07:24:11.298Z,11.10
2019-04-29T07:29:17.795Z,10.80
2019-04-29T07:34:28.885Z,11.05
2019-04-29T07:39:33.505Z,10.91
2019-04-29T07:44:44.296Z,11.27
2019-04-29T07:49:51.487Z,11.16
2019-04-29T07:54:56.317Z,11.22
2019-04-29T08:00:02.098Z,11.35
2019-04-29T08:05:09.407Z,11.58
2019-04-29T08:10:23.451Z,11.74
2019-04-29T08:15:22.956Z,11.48
2019-04-29T08:20:28.845Z,11.79
2019-04-29T08:25:34.738Z,12.22
2019-04-29T08:30:41.911Z,12.12
2019-04-29T08:35:47.952Z,12.38
2019-04-29T08:40:54.084Z,12.22
2019-04-29T08:46:13.427Z,12.08
2019-04-29T08:51:19.345Z,12.21
2019-04-29T08:56:25.125Z,12.32
2019-04-29T09:01:34.182Z,12.25
2019-04-29T09:06:38.701Z,12.46
2019-04-29T09:11:47.940Z,12.54
2019-04-29T09:16:52.487Z,12.34
2019-04-29T09:21:59.901Z,12.77
2019-04-29T09:27:19.187Z,12.69
2019-04-29T09:32:25.459Z,13.21
2019-04-29T09:37:31.334Z,13.47
2019-04-29T09:42:45.532Z,13.24
2019-04-29T09:47:49.013Z,13.59
2019-04-29T09:52:54.877Z,13.66
2019-04-29T09:58:00.707Z,13.73
2019-04-29T10:03:23.329Z,13.60
2019-04-29T10:08:29.246Z,14.43
2019-04-29T10:13:35.062Z,14.37
2019-04-29T10:18:42.599Z,14.77
2019-04-29T10:23:48.474Z,15.24
2019-04-29T10:28:55.869Z,15.02
2019-04-29T10:34:01.721Z,15.88
2019-04-29T10:39:22.744Z,15.22
2019-04-29T10:44:37.613Z,14.69
2019-04-29T10:49:53.948Z,15.23
2019-04-29T10:55:00.333Z,14.91
2019-04-29T11:00:10.347Z,15.32
2019-04-29T11:05:28.063Z,15.51
2019-04-29T11:10:33.928Z,15.54
2019-04-29T11:15:44.982Z,15.85
2019-04-29T11:20:53.846Z,15.90
2019-04-29T11:26:04.483Z,16.53
2019-04-29T11:31:13.997Z,17.38
2019-04-29T11:36:29.062Z,16.97
2019-04-29T11:41:34.925Z,17.24
2019-04-29T11:46:44.718Z,16.94
2019-04-29T11:52:08.585Z,16.98
2019-04-29T11:56:56.141Z,17.64
2019-04-29T12:02:07.751Z,17.58
2019-04-29T12:07:13.636Z,16.78
2019-04-29T12:12:20.932Z,16.57
2019-04-29T12:17:34.425Z,16.61
2019-04-29T12:22:48.514Z,16.58
2019-04-29T12:27:52.847Z,17.24
2019-04-29T12:33:01.394Z,17.28
2019-04-29T12:38:23.699Z,17.21
2019-04-29T12:43:34.395Z,17.57
2019-04-29T12:48:40.436Z,17.91
2019-04-29T12:53:46.220Z,17.90
2019-04-29T12:58:55.265Z,18.56
2019-04-29T13:04:17.584Z,18.36
2019-04-29T13:09:42.325Z,19.07
2019-04-29T13:15:07.843Z,18.83
2019-04-29T13:20:13.530Z,19.78
2019-04-29T13:25:19.753Z,19.41
2019-04-29T13:30:26.577Z,19.89
2019-04-29T13:35:32.410Z,19.93
2019-04-29T13:40:39.486Z,20.25
2019-04-29T13:45:47.022Z,20.07
2019-04-29T13:51:06.452Z,19.97
2019-04-29T13:56:32.263Z,19.95
2019-04-29T14:01:29.851Z,19.76
2019-04-29T14:06:29.903Z,19.93
2019-04-29T14:11:35.707Z,19.63
2019-04-29T14:16:43.160Z,19.62
2019-04-29T14:21:48.851Z,19.50
2019-04-29T14:26:54.536Z,19.41
2019-04-29T14:32:01.390Z,19.55
2019-04-29T14:37:20.036Z,19.35
2019-04-29T14:42:17.377Z,18.23
2019-04-29T14:47:24.697Z,17.94
2019-04-29T14:52:30.824Z,17.96
2019-04-29T14:57:36.715Z,18.17
2019-04-29T15:02:42.538Z,18.09
2019-04-29T15:07:48.526Z,17.98
2019-04-29T15:13:01.506Z,17.87
2019-04-29T15:18:15.850Z,17.99
2019-04-29T15:23:28.488Z,17.54
2019-04-29T15:28:25.315Z,17.64
2019-04-29T15:33:34.664Z,17.53
2019-04-29T15:38:38.719Z,17.13
2019-04-29T15:43:47.632Z,17.13
2019-04-29T15:48:53.346Z,17.08
2019-04-29T15:53:59.025Z,17.19
2019-04-29T15:59:08.817Z,16.75
2019-04-29T16:04:13.770Z,17.84
2019-04-29T16:09:23.688Z,18.01
2019-04-29T16:14:28.537Z,18.76
2019-04-29T16:19:34.309Z,19.49
2019-04-29T16:24:40.138Z,18.88
2019-04-29T16:29:51.575Z,18.47
2019-04-29T16:34:54.956Z,18.39
2019-04-29T16:40:01.334Z,18.68
2019-04-29T16:45:12.022Z,18.47
2019-04-29T16:50:16.397Z,19.15
2019-04-29T16:55:22.130Z,20.03
2019-04-29T17:00:29.484Z,18.65
2019-04-29T17:05:35.274Z,17.34
2019-04-29T17:10:46.016Z,14.68
2019-04-29T17:15:52.575Z,14.19
2019-04-29T17:21:04.749Z,13.52
2019-04-29T17:26:08.042Z,13.62
2019-04-29T17:31:16.494Z,13.08
2019-04-29T17:36:25.830Z,12.87
2019-04-29T17:41:31.911Z,12.90
2019-04-29T17:46:48.531Z,12.42
2019-04-29T17:52:01.479Z,12.33
2019-04-29T17:57:25.116Z,12.23
2019-04-29T18:02:30.617Z,11.93
2019-04-29T18:07:44.997Z,12.01
2019-04-29T18:12:48.559Z,11.66
2019-04-29T18:17:55.892Z,11.33
2019-04-29T18:23:15.853Z,11.30
2019-04-29T18:28:21.078Z,11.01
2019-04-29T18:33:30.256Z,10.71
2019-04-29T18:38:35.048Z,10.67
2019-04-29T18:43:41.084Z,10.67
2019-04-29T18:48:46.958Z,10.46
2019-04-29T18:53:52.875Z,10.46
2019-04-29T18:58:58.645Z,10.30
2019-04-29T19:04:10.239Z,10.16
2019-04-29T19:09:19.855Z,10.10
2019-04-29T19:14:26.848Z,10.08
2019-04-29T19:19:34.818Z,9.98
2019-04-29T19:24:38.286Z,9.85
2019-04-29T19:29:45.291Z,9.80
2019-04-29T19:34:54.927Z,9.73
2019-04-29T19:39:59.672Z,9.59
2019-04-29T19:45:13.242Z,9.49
2019-04-29T19:50:19.502Z,9.28
2019-04-29T19:55:25.547Z,9.28
2019-04-29T20:00:32.083Z,8.99
2019-04-29T20:06:07.421Z,9.00
2019-04-29T20:11:12.283Z,8.88
2019-04-29T20:16:23.058Z,8.77
2019-04-29T20:21:29.309Z,8.67
2019-04-29T20:26:35.981Z,8.52
2019-04-29T20:31:48.596Z,8.47
2019-04-29T20:36:49.680Z,8.28
2019-04-29T20:42:00.656Z,8.33
2019-04-29T20:47:19.126Z,8.25
2019-04-29T20:52:29.622Z,8.04
2019-04-29T20:57:36.021Z,8.06
2019-04-29T21:02:42.133Z,7.89
2019-04-29T21:07:49.220Z,7.85
2019-04-29T21:13:02.837Z,7.93
2019-04-29T21:18:10.274Z,7.78
2019-04-29T21:23:17.138Z,7.76
2019-04-29T21:28:22.934Z,7.66
2019-04-29T21:33:31.151Z,7.59
2019-04-29T21:38:38.047Z,7.53
2019-04-29T21:43:53.527Z,7.53
2019-04-29T21:48:57.378Z,7.54
2019-04-29T21:54:03.589Z,7.55
2019-04-29T21:59:12.277Z,7.49
2019-04-29T22:04:18.346Z,7.49
2019-04-29T22:09:35.854Z,7.41
2019-04-29T22:14:32.753Z,7.55
2019-04-29T22:19:39.425Z,7.47
2019-04-29T22:24:45.805Z,7.38
2019-04-29T22:29:51.652Z,7.39
2019-04-29T22:35:01.167Z,7.40
2019-04-29T22:40:09.988Z,7.35
2019-04-29T22:45:15.819Z,7.48
2019-04-29T22:50:21.561Z,7.44
2019-04-29T22:55:30.784Z,7.42
2019-04-29T23:00:36.257Z,7.27
2019-04-29T23:05:43.236Z,7.27
2019-04-29T23:10:49.148Z,7.13
2019-04-29T23:16:00.979Z,7.06
2019-04-29T23:21:05.238Z,7.03
2019-04-29T23:26:11.017Z,7.06
2019-04-29T23:31:16.669Z,7.22
2019-04-29T23:36:22.359Z,7.05
2019-04-29T23:41:33.102Z,7.03
2019-04-29T23:46:35.835Z,7.09
2019-04-29T23:51:41.707Z,6.99
2019-04-29T23:56:56.554Z,6.92
